Time;durP1;ratioP1;P1;durP2;ratioP2;P2;SDS_P1;SDS_P2;PMS_P1;PMS_P2;Temp;Humidity;BMP_temperature;BMP_pressure;BME280_temperature;BME280_humidity;BME280_pressure;Samples;Min_cycle;Max_cycle;Signal;HPM_P1;HPM_P2
2022/01/27 00:01:30;;;;;;;55.67;26.13;;;3.90;27.20;;;;;;6258191;28;20309;-57
2022/01/27 00:05:09;;;;;;;46.63;25.83;;;3.90;26.60;;;;;;6281473;28;20225;-57
2022/01/27 00:08:16;;;;;;;49.03;25.77;;;4.10;26.80;;;;;;6281834;28;20245;-57
2022/01/27 00:11:46;;;;;;;44.07;24.10;;;4.20;27.60;;;;;;6279387;28;20241;-56
2022/01/27 00:15:14;;;;;;;52.53;26.57;;;3.80;29.30;;;;;;6258532;28;20710;-57
2022/01/27 00:18:42;;;;;;;49.93;25.33;;;3.60;29.50;;;;;;6258413;28;20630;-56
2022/01/27 00:22:09;;;;;;;46.90;24.93;;;4.00;29.80;;;;;;6257613;28;20324;-56
2022/01/27 00:25:13;;;;;;;50.73;25.60;;;4.00;30.20;;;;;;6258363;28;20233;-55
2022/01/27 00:28:18;;;;;;;51.17;24.80;;;3.70;31.00;;;;;;6258250;28;20271;-61
2022/01/27 00:31:22;;;;;;;49.10;25.07;;;3.80;31.70;;;;;;6258228;28;20746;-55
2022/01/27 00:34:25;;;;;;;47.77;24.53;;;3.80;32.60;;;;;;6280127;28;20857;-55
2022/01/27 00:37:28;;;;;;;41.53;23.43;;;3.90;32.00;;;;;;6283169;28;20463;-56
2022/01/27 00:40:31;;;;;;;40.57;23.17;;;3.70;32.20;;;;;;6283313;28;20497;-56
2022/01/27 00:43:37;;;;;;;44.03;23.60;;;4.00;31.80;;;;;;6280352;28;20717;-55
2022/01/27 00:46:40;;;;;;;44.50;23.53;;;3.70;30.90;;;;;;6288163;28;20239;-55
2022/01/27 00:49:43;;;;;;;42.20;22.20;;;3.60;31.20;;;;;;6287515;28;20694;-56
2022/01/27 00:52:49;;;;;;;44.20;24.27;;;3.80;30.60;;;;;;6267294;28;20276;-56
2022/01/27 00:55:53;;;;;;;40.37;21.50;;;4.00;30.60;;;;;;6255165;28;20882;-55
2022/01/27 00:59:17;;;;;;;38.60;21.87;;;3.70;30.30;;;;;;6262295;28;20320;-57
2022/01/27 01:02:30;;;;;;;39.40;23.10;;;4.00;30.80;;;;;;6280169;28;20376;-56
2022/01/27 01:05:53;;;;;;;37.67;22.30;;;3.80;31.20;;;;;;6287317;28;20320;-56
2022/01/27 01:16:59;;;;;;;39.00;21.70;;;3.80;30.80;;;;;;6287818;28;20391;-58
2022/01/27 01:20:46;;;;;;;44.90;22.70;;;3.90;32.00;;;;;;6263984;28;20333;-57
2022/01/27 01:31:09;;;;;;;35.37;21.23;;;4.00;29.80;;;;;;6262712;28;20238;-56
2022/01/27 01:34:18;;;;;;;39.53;20.03;;;4.00;29.70;;;;;;6282255;28;20249;-56
2022/01/27 01:37:20;;;;;;;34.57;20.33;;;3.90;29.70;;;;;;6283218;28;20309;-56
2022/01/27 01:40:24;;;;;;;34.67;21.13;;;3.80;29.10;;;;;;6262211;28;20412;-58
2022/01/27 01:43:28;;;;;;;35.97;19.43;;;3.70;29.60;;;;;;6282512;28;20243;-55
2022/01/27 01:46:55;;;;;;;33.27;19.40;;;3.80;29.60;;;;;;6262333;28;20237;-55
2022/01/27 01:50:00;;;;;;;31.27;18.17;;;4.10;29.80;;;;;;6261634;28;20248;-56
2022/01/27 01:53:04;;;;;;;29.73;18.67;;;3.80;28.70;;;;;;6258578;28;20234;-54
2022/01/27 01:56:06;;;;;;;27.73;17.57;;;4.00;28.20;;;;;;6261100;28;20323;-56
2022/01/27 01:59:09;;;;;;;27.37;17.67;;;4.10;27.60;;;;;;6261277;28;20657;-55
2022/01/27 02:02:13;;;;;;;26.47;16.50;;;3.80;27.30;;;;;;6265738;28;20316;-56
2022/01/27 02:05:19;;;;;;;30.30;19.20;;;3.90;27.40;;;;;;6281488;28;20320;-55
2022/01/27 02:08:45;;;;;;;30.23;17.23;;;3.80;27.40;;;;;;6280637;28;20238;-56
2022/01/27 02:18:50;;;;;;;27.47;17.90;;;4.10;27.40;;;;;;6265826;28;20655;-57
2022/01/27 02:22:20;;;;;;;25.93;16.47;;;3.90;26.60;;;;;;6261220;28;20238;-55
2022/01/27 02:25:46;;;;;;;23.47;16.57;;;3.90;26.80;;;;;;6262147;28;20242;-56
2022/01/27 02:29:13;;;;;;;23.03;17.07;;;3.90;26.60;;;;;;6279867;28;20604;-55
2022/01/27 02:32:40;;;;;;;24.17;17.63;;;3.90;26.60;;;;;;6268224;28;20242;-56
2022/01/27 02:36:07;;;;;;;23.10;16.50;;;3.80;25.90;;;;;;6286143;28;20237;-56
2022/01/27 02:39:36;;;;;;;23.20;16.60;;;4.20;26.60;;;;;;6276112;28;20726;-55
2022/01/27 02:43:03;;;;;;;22.33;16.93;;;4.30;27.50;;;;;;6277583;28;20236;-55
2022/01/27 02:46:12;;;;;;;25.37;17.40;;;4.20;26.20;;;;;;6286757;28;20881;-56
2022/01/27 02:49:15;;;;;;;25.53;16.93;;;4.10;26.80;;;;;;6284831;28;20282;-55
2022/01/27 02:52:18;;;;;;;25.50;16.13;;;4.00;26.40;;;;;;6286199;28;20316;-56
2022/01/27 02:55:22;;;;;;;24.83;17.23;;;4.00;26.00;;;;;;6267052;28;20257;-57
2022/01/27 02:58:24;;;;;;;22.47;17.07;;;4.00;26.60;;;;;;6261242;28;20301;-56
2022/01/27 03:01:27;;;;;;;24.10;17.83;;;4.20;26.10;;;;;;6259372;28;20295;-57
2022/01/27 03:04:33;;;;;;;24.53;16.83;;;4.20;26.10;;;;;;6281237;28;20721;-57
2022/01/27 03:08:00;;;;;;;23.67;16.50;;;4.10;25.20;;;;;;6259837;28;20234;-57
2022/01/27 03:11:11;;;;;;;22.50;17.40;;;4.10;25.50;;;;;;6266908;28;20719;-57
2022/01/27 03:14:16;;;;;;;22.40;17.17;;;4.30;26.10;;;;;;6285457;28;20692;-56
2022/01/27 03:17:19;;;;;;;26.43;18.47;;;4.00;25.90;;;;;;6278269;28;20303;-56
2022/01/27 03:20:22;;;;;;;22.77;17.27;;;4.20;27.30;;;;;;6280681;28;20407;-55
2022/01/27 03:23:25;;;;;;;27.17;17.47;;;4.20;26.90;;;;;;6283957;28;20283;-56
2022/01/27 03:26:29;;;;;;;25.30;17.90;;;4.00;26.50;;;;;;6284019;28;20720;-56
2022/01/27 03:29:32;;;;;;;24.67;18.17;;;4.00;26.80;;;;;;6277623;28;20734;-56
2022/01/27 03:32:35;;;;;;;25.13;17.63;;;4.30;27.50;;;;;;6277072;28;20323;-57
2022/01/27 03:35:37;;;;;;;21.57;17.27;;;4.30;27.00;;;;;;6278633;28;20669;-57
2022/01/27 03:38:41;;;;;;;23.80;17.73;;;4.00;26.10;;;;;;6283981;28;20499;-56
2022/01/27 03:41:49;;;;;;;23.03;16.90;;;4.30;26.20;;;;;;6267175;28;20706;-58
2022/01/27 03:44:52;;;;;;;26.23;16.73;;;4.20;26.80;;;;;;6259779;28;20229;-56
2022/01/27 03:47:55;;;;;;;22.47;16.53;;;4.10;26.80;;;;;;6259619;28;20315;-55
2022/01/27 03:50:57;;;;;;;24.30;17.67;;;4.10;26.80;;;;;;6283217;28;20240;-57
2022/01/27 03:54:00;;;;;;;24.77;16.77;;;4.00;27.40;;;;;;6283839;28;20367;-56
2022/01/27 03:57:04;;;;;;;21.83;16.30;;;4.00;27.30;;;;;;6274646;28;20312;-56
2022/01/27 04:00:09;;;;;;;25.77;17.30;;;4.20;27.30;;;;;;6271625;28;20325;-56
2022/01/27 04:03:15;;;;;;;20.57;16.10;;;4.40;27.90;;;;;;6281875;28;20237;-56
2022/01/27 04:06:21;;;;;;;23.50;16.37;;;4.30;27.70;;;;;;6265103;28;20246;-57
2022/01/27 04:09:26;;;;;;;21.10;17.57;;;4.20;27.10;;;;;;6257885;28;21179;-56
2022/01/27 04:12:30;;;;;;;22.67;16.00;;;4.40;27.80;;;;;;6279131;28;20233;-56
2022/01/27 04:15:34;;;;;;;27.37;16.83;;;4.30;27.80;;;;;;6270174;28;20737;-58
2022/01/27 04:18:37;;;;;;;19.63;16.20;;;4.40;28.40;;;;;;6259515;28;20257;-57
2022/01/27 04:21:40;;;;;;;19.00;15.30;;;4.30;28.10;;;;;;6264352;28;20256;-58
2022/01/27 04:24:42;;;;;;;20.03;14.97;;;4.30;27.90;;;;;;6284062;28;20315;-58
2022/01/27 04:27:50;;;;;;;20.53;15.10;;;4.40;26.90;;;;;;6287386;28;20266;-56
2022/01/27 04:30:55;;;;;;;21.47;15.97;;;4.30;27.60;;;;;;6288033;28;20283;-56
2022/01/27 04:33:59;;;;;;;21.57;15.47;;;4.30;26.90;;;;;;6255271;28;20302;-60
2022/01/27 04:37:02;;;;;;;17.93;13.93;;;4.40;26.30;;;;;;6279048;28;20310;-57
2022/01/27 04:40:11;;;;;;;16.10;14.17;;;4.40;24.40;;;;;;6283511;28;20236;-56
2022/01/27 04:43:23;;;;;;;17.30;14.13;;;4.70;23.70;;;;;;6285240;28;20225;-56
2022/01/27 04:46:33;;;;;;;15.80;13.80;;;4.50;22.50;;;;;;6281120;28;20315;-57
2022/01/27 04:49:36;;;;;;;14.40;12.90;;;4.70;20.70;;;;;;6290139;28;20238;-57
2022/01/27 04:52:43;;;;;;;14.33;12.90;;;4.40;20.10;;;;;;6282572;28;20236;-57
2022/01/27 04:55:46;;;;;;;15.03;13.43;;;4.70;20.40;;;;;;6287097;28;20222;-56
2022/01/27 04:58:54;;;;;;;14.67;12.20;;;4.60;19.60;;;;;;6286229;28;20313;-56
2022/01/27 05:02:01;;;;;;;14.97;12.70;;;4.40;18.80;;;;;;6280491;28;20418;-57
2022/01/27 05:05:05;;;;;;;15.80;12.37;;;4.60;18.10;;;;;;6287262;28;20232;-56
2022/01/27 05:08:24;;;;;;;12.87;11.57;;;4.80;17.80;;;;;;6286567;28;20229;-55
2022/01/27 05:11:30;;;;;;;13.73;12.30;;;4.70;16.70;;;;;;6282266;28;20756;-55
2022/01/27 05:14:34;;;;;;;12.53;11.33;;;4.80;16.80;;;;;;6284875;28;20261;-57
2022/01/27 05:17:37;;;;;;;13.27;11.77;;;4.80;15.50;;;;;;6287333;28;20248;-56
2022/01/27 05:20:40;;;;;;;12.50;11.30;;;4.70;14.90;;;;;;6281482;28;20798;-56
2022/01/27 05:23:42;;;;;;;14.70;12.37;;;4.50;14.70;;;;;;6281821;28;20241;-57
2022/01/27 05:26:45;;;;;;;12.73;11.43;;;4.80;14.90;;;;;;6287674;28;20287;-58
2022/01/27 05:29:51;;;;;;;11.93;10.87;;;4.60;14.70;;;;;;6286759;28;20245;-58
2022/01/27 05:32:54;;;;;;;12.90;11.67;;;4.50;13.50;;;;;;6284787;28;20233;-57
2022/01/27 05:35:57;;;;;;;12.67;11.57;;;4.60;13.10;;;;;;6287974;28;20249;-57
2022/01/27 05:39:00;;;;;;;12.50;11.33;;;4.70;12.30;;;;;;6284746;28;20753;-57
2022/01/27 05:42:04;;;;;;;13.53;12.27;;;4.60;13.30;;;;;;6285602;28;20233;-57
2022/01/27 05:45:10;;;;;;;13.80;12.37;;;4.50;11.80;;;;;;6284322;28;20806;-58
2022/01/27 05:48:13;;;;;;;13.30;12.00;;;4.70;12.10;;;;;;6281141;28;20240;-57
2022/01/27 05:51:16;;;;;;;12.57;11.13;;;4.50;11.10;;;;;;6282651;28;20841;-58
2022/01/27 05:54:18;;;;;;;13.50;12.10;;;4.50;10.70;;;;;;6284268;28;20320;-56
2022/01/27 05:57:21;;;;;;;13.93;12.47;;;4.70;11.80;;;;;;6280887;28;20237;-56
2022/01/27 06:00:27;;;;;;;13.90;12.50;;;4.80;11.10;;;;;;6283559;28;20634;-58
2022/01/27 06:03:30;;;;;;;14.07;12.60;;;4.60;11.50;;;;;;6282312;28;20320;-58
2022/01/27 06:06:32;;;;;;;14.90;13.40;;;4.80;11.40;;;;;;6266252;28;20233;-52
2022/01/27 06:09:35;;;;;;;16.73;13.07;;;4.80;12.70;;;;;;6283796;28;20564;-55
2022/01/27 06:12:46;;;;;;;15.00;13.57;;;4.60;14.80;;;;;;6278062;28;20291;-57
2022/01/27 06:15:50;;;;;;;15.23;13.27;;;4.60;15.70;;;;;;6284812;28;20237;-57
2022/01/27 06:18:53;;;;;;;16.07;14.50;;;4.60;16.90;;;;;;6281147;28;20860;-57
2022/01/27 06:21:56;;;;;;;15.50;13.90;;;4.60;18.10;;;;;;6283846;28;20267;-57
2022/01/27 06:24:59;;;;;;;18.47;15.57;;;4.50;19.00;;;;;;6282461;28;20233;-57
2022/01/27 06:28:02;;;;;;;16.30;14.60;;;4.50;19.50;;;;;;6283848;28;20698;-57
2022/01/27 06:31:06;;;;;;;17.83;15.40;;;4.60;19.20;;;;;;6284590;28;20233;-57
2022/01/27 06:34:09;;;;;;;18.30;16.40;;;4.30;19.00;;;;;;6278115;28;20617;-56
2022/01/27 06:37:11;;;;;;;21.63;17.23;;;4.20;18.40;;;;;;6284804;28;20636;-57
2022/01/27 06:40:15;;;;;;;19.23;17.10;;;4.60;18.20;;;;;;6277822;28;20241;-57
2022/01/27 06:43:18;;;;;;;20.57;16.50;;;4.40;18.70;;;;;;6271381;28;20229;-57
2022/01/27 06:46:22;;;;;;;22.13;16.67;;;4.40;18.30;;;;;;6275154;28;20375;-57
2022/01/27 06:49:24;;;;;;;21.00;17.33;;;4.60;18.70;;;;;;6267773;28;20233;-57
2022/01/27 06:52:28;;;;;;;23.07;17.47;;;4.60;19.20;;;;;;6276643;28;20233;-57
2022/01/27 06:55:31;;;;;;;23.30;17.63;;;4.20;19.90;;;;;;6282170;28;20241;-58
2022/01/27 06:58:36;;;;;;;21.53;18.10;;;4.10;20.10;;;;;;6284587;28;20241;-57
2022/01/27 07:01:40;;;;;;;23.83;18.23;;;4.40;20.30;;;;;;6282899;28;20323;-57
2022/01/27 07:04:43;;;;;;;24.07;18.63;;;4.30;20.00;;;;;;6282412;28;20241;-58
2022/01/27 07:07:45;;;;;;;25.17;20.30;;;4.20;19.50;;;;;;6285240;28;20229;-57
2022/01/27 07:10:49;;;;;;;22.73;18.90;;;4.30;18.70;;;;;;6285430;28;20240;-56
2022/01/27 07:13:52;;;;;;;28.67;19.80;;;4.60;18.70;;;;;;6281839;28;20316;-56
2022/01/27 07:16:57;;;;;;;27.23;19.47;;;4.40;16.80;;;;;;6283913;28;20530;-57
2022/01/27 07:19:59;;;;;;;31.33;21.83;;;4.40;17.50;;;;;;6282526;28;20617;-56
2022/01/27 07:23:02;;;;;;;29.33;22.23;;;4.40;16.90;;;;;;6283551;28;20361;-58
2022/01/27 07:26:06;;;;;;;32.30;23.00;;;4.40;18.50;;;;;;6282875;28;20261;-57
2022/01/27 07:29:09;;;;;;;35.63;24.90;;;4.30;19.00;;;;;;6278245;28;20229;-58
2022/01/27 07:32:13;;;;;;;31.73;24.33;;;4.20;19.10;;;;;;6282102;28;20306;-57
2022/01/27 07:35:21;;;;;;;35.50;25.70;;;4.40;17.80;;;;;;6274223;28;20226;-57
2022/01/27 07:38:26;;;;;;;35.70;24.97;;;4.10;16.30;;;;;;6264360;28;20258;-57
2022/01/27 07:41:29;;;;;;;32.97;25.30;;;4.40;14.70;;;;;;6282260;28;20310;-57
2022/01/27 07:44:32;;;;;;;38.93;24.90;;;4.30;14.60;;;;;;6279413;28;20248;-57
2022/01/27 07:47:37;;;;;;;38.77;25.43;;;4.40;11.90;;;;;;6282564;28;20233;-58
2022/01/27 07:50:39;;;;;;;36.73;24.90;;;4.40;10.70;;;;;;6282522;28;20615;-57
2022/01/27 07:53:43;;;;;;;38.00;26.50;;;4.30;10.90;;;;;;6274041;28;20676;-57
2022/01/27 07:57:05;;;;;;;39.33;27.17;;;4.60;11.40;;;;;;6275945;28;20244;-56
2022/01/27 08:00:10;;;;;;;39.83;28.23;;;4.60;12.00;;;;;;6275665;28;20244;-57
2022/01/27 08:03:14;;;;;;;43.50;27.17;;;4.50;12.70;;;;;;6281679;28;20378;-56
2022/01/27 08:06:17;;;;;;;43.43;28.00;;;4.20;14.40;;;;;;6280955;28;20672;-55
2022/01/27 08:09:20;;;;;;;42.03;28.30;;;4.10;14.30;;;;;;6278093;28;20224;-57
2022/01/27 08:12:23;;;;;;;39.97;26.40;;;4.10;14.70;;;;;;6282250;28;20566;-56
2022/01/27 08:15:25;;;;;;;41.30;27.70;;;4.00;14.30;;;;;;6274685;28;20237;-56
2022/01/27 08:18:30;;;;;;;41.80;26.47;;;4.20;13.50;;;;;;6282946;28;20614;-56
2022/01/27 08:21:33;;;;;;;43.27;26.90;;;4.30;10.30;;;;;;6280518;28;20627;-58
2022/01/27 08:24:35;;;;;;;42.20;26.90;;;4.10;9.20;;;;;;6283395;28;20306;-58
2022/01/27 08:27:40;;;;;;;38.50;26.20;;;4.40;8.10;;;;;;6282085;28;20253;-56
2022/01/27 08:30:47;;;;;;;40.87;26.23;;;4.40;7.70;;;;;;6270451;28;20287;-55
2022/01/27 08:34:02;;;;;;;45.40;27.53;;;4.50;7.70;;;;;;6273230;28;20279;-58
2022/01/27 08:37:08;;;;;;;39.30;26.07;;;4.50;6.50;;;;;;6281827;28;20664;-58
2022/01/27 08:40:14;;;;;;;38.17;25.77;;;4.50;3.10;;;;;;6277563;28;20244;-56
2022/01/27 08:43:36;;;;;;;42.87;26.83;;;4.50;6.00;;;;;;6278904;28;20238;-58
2022/01/27 08:46:39;;;;;;;39.00;26.40;;;4.40;7.50;;;;;;6283757;28;20238;-57
2022/01/27 08:49:46;;;;;;;42.07;25.37;;;4.50;8.90;;;;;;6277869;28;20241;-57
2022/01/27 08:52:48;;;;;;;40.97;26.07;;;4.40;10.90;;;;;;6282920;28;20391;-57
2022/01/27 08:55:51;;;;;;;41.33;25.80;;;4.20;8.50;;;;;;6282186;28;20836;-57
2022/01/27 08:58:55;;;;;;;40.37;25.70;;;4.10;8.40;;;;;;6281579;28;20298;-56
2022/01/27 09:01:58;;;;;;;36.63;24.47;;;4.20;8.70;;;;;;6281802;28;20265;-58
2022/01/27 09:05:03;;;;;;;33.60;24.50;;;4.30;5.00;;;;;;6277656;28;20626;-57
2022/01/27 09:08:06;;;;;;;35.80;24.13;;;4.60;3.10;;;;;;6286558;28;20716;-57
2022/01/27 09:11:09;;;;;;;39.53;24.20;;;4.40;3.10;;;;;;6286590;28;20471;-57
2022/01/27 09:14:12;;;;;;;33.60;23.20;;;4.50;4.20;;;;;;6284124;28;20237;-57
2022/01/27 09:17:16;;;;;;;35.77;23.63;;;4.30;4.30;;;;;;6286543;28;20232;-51
2022/01/27 09:20:24;;;;;;;31.40;21.87;;;4.30;2.30;;;;;;6286151;28;20575;-58
2022/01/27 09:23:27;;;;;;;34.17;22.27;;;4.30;2.40;;;;;;6285407;28;20628;-58
2022/01/27 09:26:43;;;;;;;33.27;22.03;;;4.70;2.60;;;;;;6286008;28;20257;-59
2022/01/27 09:29:47;;;;;;;34.97;21.70;;;4.40;3.10;;;;;;6284592;28;20363;-57
2022/01/27 09:32:50;;;;;;;30.50;21.03;;;4.50;4.20;;;;;;6281860;28;20237;-56
2022/01/27 09:35:55;;;;;;;31.20;21.97;;;4.40;5.10;;;;;;6283043;28;20330;-56
2022/01/27 09:38:58;;;;;;;31.33;20.53;;;4.60;4.70;;;;;;6280757;28;20275;-57
2022/01/27 09:42:02;;;;;;;26.53;19.47;;;4.50;5.10;;;;;;6286221;28;20322;-56
2022/01/27 09:45:08;;;;;;;31.50;21.07;;;4.40;5.50;;;;;;6263628;28;20234;-55
2022/01/27 09:48:17;;;;;;;27.77;20.20;;;4.20;7.90;;;;;;6285476;28;20233;-56
2022/01/27 09:51:26;;;;;;;29.77;19.63;;;4.30;9.90;;;;;;6286409;28;20324;-57
2022/01/27 09:54:29;;;;;;;28.43;19.30;;;4.40;10.60;;;;;;6282194;28;20674;-56
2022/01/27 09:57:32;;;;;;;28.97;20.00;;;4.20;11.40;;;;;;6281978;28;20379;-56
2022/01/27 10:00:36;;;;;;;26.10;19.57;;;4.50;15.30;;;;;;6282109;28;20252;-59
2022/01/27 10:03:52;;;;;;;30.33;19.27;;;4.40;17.70;;;;;;6283463;28;20659;-58
2022/01/27 10:06:59;;;;;;;29.53;19.23;;;4.50;19.50;;;;;;6284554;28;20240;-55
2022/01/27 10:10:06;;;;;;;32.50;20.33;;;4.10;21.50;;;;;;6283642;28;20730;-56
2022/01/27 10:13:10;;;;;;;30.93;19.80;;;4.10;25.20;;;;;;6285035;28;20436;-56
2022/01/27 10:16:28;;;;;;;33.27;21.30;;;4.10;26.10;;;;;;6284121;28;20580;-57
2022/01/27 10:19:35;;;;;;;36.10;21.53;;;4.20;28.50;;;;;;6282542;28;20249;-56
2022/01/27 10:22:39;;;;;;;30.20;20.83;;;3.90;29.10;;;;;;6285056;28;20585;-56
2022/01/27 10:25:49;;;;;;;29.33;20.03;;;4.00;30.00;;;;;;6284889;28;20253;-56
2022/01/27 10:29:01;;;;;;;30.87;20.00;;;3.80;29.60;;;;;;6275986;28;20734;-57
2022/01/27 10:32:08;;;;;;;31.33;21.93;;;4.20;30.00;;;;;;6284396;28;20238;-57
2022/01/27 10:35:12;;;;;;;37.07;21.23;;;4.00;31.60;;;;;;6269120;28;20233;-56
2022/01/27 10:38:18;;;;;;;33.70;21.87;;;3.80;31.40;;;;;;6280663;28;20221;-56
2022/01/27 10:41:21;;;;;;;36.17;22.17;;;3.80;32.10;;;;;;6274983;28;20293;-57
2022/01/27 10:44:33;;;;;;;35.20;21.43;;;3.90;33.00;;;;;;6280503;28;20229;-57
2022/01/27 10:47:43;;;;;;;37.33;21.93;;;4.10;34.80;;;;;;6278364;28;20883;-56
2022/01/27 10:50:59;;;;;;;37.90;22.20;;;3.80;33.30;;;;;;6283538;28;20248;-57
2022/01/27 10:54:06;;;;;;;33.77;21.67;;;3.80;33.70;;;;;;6284279;28;20704;-57
2022/01/27 10:57:13;;;;;;;38.27;22.03;;;3.80;34.50;;;;;;6281290;28;20438;-57
2022/01/27 11:00:18;;;;;;;38.03;23.30;;;3.80;34.80;;;;;;6283245;28;20345;-57
2022/01/27 11:03:21;;;;;;;37.63;23.40;;;3.70;35.30;;;;;;6283223;28;20874;-58
2022/01/27 11:06:26;;;;;;;38.13;23.67;;;4.00;35.70;;;;;;6283088;28;20326;-57
2022/01/27 11:09:33;;;;;;;39.03;23.37;;;4.00;35.70;;;;;;6284004;28;20244;-57
2022/01/27 11:12:37;;;;;;;34.80;22.73;;;4.10;36.20;;;;;;6276848;28;20733;-57
2022/01/27 11:15:41;;;;;;;37.23;23.00;;;3.90;36.60;;;;;;6279091;28;20483;-55
2022/01/27 11:18:46;;;;;;;35.23;22.27;;;3.90;35.60;;;;;;6281436;28;20320;-57
2022/01/27 11:21:56;;;;;;;33.03;21.57;;;4.30;36.20;;;;;;6283578;28;20237;-57
2022/01/27 11:25:49;;;;;;;32.70;22.43;;;3.90;35.20;;;;;;6283642;28;20332;-56
2022/01/27 11:28:32;;;;;;;33.80;20.87;;;4.00;36.70;;;;;;6270574;28;20260;-58
2022/01/27 11:32:05;;;;;;;39.43;21.83;;;4.00;36.80;;;;;;6273983;28;20476;-57
2022/01/27 11:35:17;;;;;;;32.47;20.43;;;4.00;37.10;;;;;;6276166;28;20312;-57
2022/01/27 11:38:27;;;;;;;32.83;20.20;;;4.10;37.10;;;;;;6278779;28;20241;-56
2022/01/27 11:41:43;;;;;;;30.20;19.90;;;4.00;37.50;;;;;;6279233;28;20249;-58
2022/01/27 11:44:48;;;;;;;32.67;20.70;;;4.30;37.30;;;;;;6281827;28;20721;-56
2022/01/27 11:48:13;;;;;;;32.53;19.73;;;4.00;37.40;;;;;;6280583;28;20289;-56
2022/01/27 11:51:17;;;;;;;28.53;18.53;;;4.00;37.30;;;;;;6283460;28;20225;-56
2022/01/27 11:54:26;;;;;;;30.10;19.17;;;4.30;37.60;;;;;;6283291;28;20583;-57
2022/01/27 11:57:42;;;;;;;30.73;19.27;;;4.00;37.50;;;;;;6278769;28;20244;-57
2022/01/27 12:01:13;;;;;;;30.60;19.10;;;4.10;37.50;;;;;;6282456;28;20608;-56
2022/01/27 12:04:16;;;;;;;28.73;18.77;;;4.40;37.80;;;;;;6276267;28;20228;-56
2022/01/27 12:07:19;;;;;;;28.87;19.30;;;4.20;37.70;;;;;;6274614;28;20374;-57
2022/01/27 12:10:41;;;;;;;25.93;18.90;;;4.40;37.80;;;;;;6282707;28;20241;-56
2022/01/27 12:14:02;;;;;;;30.33;19.70;;;4.50;38.10;;;;;;6280638;28;20264;-56
2022/01/27 12:17:27;;;;;;;28.10;19.73;;;4.40;37.10;;;;;;6276737;28;20285;-56
2022/01/27 12:20:44;;;;;;;31.07;20.57;;;4.30;37.00;;;;;;6279423;28;20227;-56
2022/01/27 12:24:17;;;;;;;30.37;20.30;;;4.20;37.00;;;;;;6279584;28;20383;-57
2022/01/27 12:27:21;;;;;;;37.23;20.93;;;4.40;37.30;;;;;;6281425;28;20263;-57
2022/01/27 12:30:57;;;;;;;34.47;19.93;;;4.50;38.00;;;;;;6283010;28;20238;-56
2022/01/27 12:34:00;;;;;;;32.70;20.47;;;4.30;37.70;;;;;;6274222;28;20233;-57
2022/01/27 12:37:05;;;;;;;28.63;19.80;;;4.20;37.50;;;;;;6282866;28;20386;-56
2022/01/27 12:40:10;;;;;;;31.57;19.50;;;4.10;37.40;;;;;;6278026;28;20749;-58
2022/01/27 12:43:15;;;;;;;30.40;19.43;;;4.50;38.30;;;;;;6281912;28;20244;-57
2022/01/27 12:46:19;;;;;;;29.57;20.30;;;4.60;37.60;;;;;;6285518;28;20415;-56
2022/01/27 12:49:38;;;;;;;29.97;19.53;;;4.40;37.60;;;;;;6286699;28;20717;-56
2022/01/27 12:52:43;;;;;;;25.73;17.97;;;4.30;38.00;;;;;;6287672;28;20285;-56
2022/01/27 12:55:46;;;;;;;32.80;19.53;;;4.20;38.30;;;;;;6283516;28;20221;-57
2022/01/27 12:58:48;;;;;;;29.10;19.60;;;4.60;38.70;;;;;;6285943;28;20713;-54
2022/01/27 13:02:00;;;;;;;29.93;19.27;;;4.30;38.30;;;;;;6287481;28;20236;-56
2022/01/27 13:05:04;;;;;;;31.10;19.00;;;4.20;39.00;;;;;;6282230;28;20698;-58
2022/01/27 13:08:08;;;;;;;28.37;19.73;;;4.40;39.30;;;;;;6285551;28;20794;-57
2022/01/27 13:11:13;;;;;;;35.13;20.17;;;4.60;38.90;;;;;;6287467;28;20374;-58
2022/01/27 13:14:16;;;;;;;29.27;19.60;;;4.60;39.00;;;;;;6284916;28;20709;-57
2022/01/27 13:17:28;;;;;;;29.93;18.90;;;4.70;38.60;;;;;;6284123;28;20229;-57
2022/01/27 13:20:36;;;;;;;28.07;18.60;;;4.70;39.50;;;;;;6286976;28;20856;-56
2022/01/27 13:23:45;;;;;;;28.70;18.20;;;4.50;38.70;;;;;;6284338;28;20436;-56
2022/01/27 13:26:50;;;;;;;26.80;17.27;;;4.80;39.20;;;;;;6285917;28;20319;-57
2022/01/27 13:29:58;;;;;;;24.53;17.70;;;4.60;39.00;;;;;;6285670;28;20256;-57
2022/01/27 13:33:02;;;;;;;22.77;16.77;;;4.90;39.30;;;;;;6285565;28;20329;-57
2022/01/27 13:36:07;;;;;;;25.73;17.77;;;4.90;39.30;;;;;;6286277;28;20335;-57
2022/01/27 13:39:35;;;;;;;21.67;15.37;;;4.90;39.40;;;;;;6285232;28;20234;-57
2022/01/27 13:42:52;;;;;;;20.30;15.47;;;5.20;40.10;;;;;;6283763;28;20260;-56
2022/01/27 13:45:54;;;;;;;17.27;14.10;;;5.20;40.20;;;;;;6285008;28;20236;-57
2022/01/27 13:49:06;;;;;;;15.97;13.87;;;5.10;40.10;;;;;;6284722;28;20232;-57
2022/01/27 13:52:11;;;;;;;16.90;13.90;;;5.30;40.00;;;;;;6284596;28;20292;-57
2022/01/27 13:55:16;;;;;;;17.90;13.10;;;5.20;39.70;;;;;;6286829;28;20233;-56
2022/01/27 13:58:25;;;;;;;13.17;11.87;;;5.30;39.80;;;;;;6281752;28;20275;-58
2022/01/27 14:01:28;;;;;;;12.73;11.53;;;5.30;39.50;;;;;;6284784;28;20625;-57
2022/01/27 14:04:45;;;;;;;13.13;11.43;;;5.40;39.40;;;;;;6279824;28;20237;-57
2022/01/27 14:07:53;;;;;;;14.50;11.10;;;5.80;38.90;;;;;;6284601;28;20723;-56
2022/01/27 14:10:56;;;;;;;11.57;10.47;;;5.60;38.90;;;;;;6278317;28;20734;-56
2022/01/27 14:14:00;;;;;;;10.60;9.83;;;5.70;38.50;;;;;;6283313;28;20245;-58
2022/01/27 14:17:03;;;;;;;10.47;9.47;;;5.60;37.90;;;;;;6285261;28;20577;-56
2022/01/27 14:20:13;;;;;;;10.27;9.27;;;5.60;36.90;;;;;;6281214;28;20321;-58
2022/01/27 14:23:19;;;;;;;10.30;9.40;;;5.90;37.10;;;;;;6284716;28;20241;-57
2022/01/27 14:26:26;;;;;;;9.67;8.87;;;5.70;37.10;;;;;;6283830;28;20274;-56
2022/01/27 14:29:29;;;;;;;10.07;9.27;;;6.00;36.30;;;;;;6274423;28;20757;-57
2022/01/27 14:32:32;;;;;;;9.60;8.93;;;5.90;36.20;;;;;;6284165;28;20737;-60
2022/01/27 14:35:38;;;;;;;10.07;9.13;;;5.80;35.80;;;;;;6279230;28;20252;-57
2022/01/27 14:38:41;;;;;;;9.30;8.50;;;5.90;36.20;;;;;;6281868;28;20245;-57
2022/01/27 14:41:44;;;;;;;9.57;8.87;;;6.10;35.70;;;;;;6279649;28;20241;-57
2022/01/27 14:44:47;;;;;;;9.40;8.73;;;6.00;35.10;;;;;;6282657;28;20632;-57
2022/01/27 14:47:55;;;;;;;9.40;8.63;;;6.00;35.20;;;;;;6284458;28;20245;-58
2022/01/27 14:50:59;;;;;;;9.70;8.80;;;6.30;35.90;;;;;;6283479;28;20239;-57
2022/01/27 14:54:03;;;;;;;9.03;8.43;;;6.20;35.00;;;;;;6280225;28;20637;-58
2022/01/27 14:57:08;;;;;;;8.90;8.30;;;6.00;33.70;;;;;;6286292;28;20233;-57
2022/01/27 15:00:13;;;;;;;8.13;7.63;;;6.20;34.70;;;;;;6284651;28;20722;-57
2022/01/27 15:03:16;;;;;;;8.93;8.33;;;6.30;34.70;;;;;;6280267;28;20363;-57
2022/01/27 15:06:20;;;;;;;8.90;8.20;;;6.00;34.20;;;;;;6283831;28;20237;-57
2022/01/27 15:09:24;;;;;;;8.60;8.03;;;6.50;34.40;;;;;;6282288;28;20256;-57
2022/01/27 15:12:27;;;;;;;9.00;8.50;;;6.30;33.30;;;;;;6282512;28;20233;-54
2022/01/27 15:18:51;;;;;;;8.53;7.93;;;6.50;33.80;;;;;;6278746;28;20724;-57
2022/01/27 15:21:55;;;;;;;9.40;8.80;;;6.30;33.10;;;;;;6282878;28;20241;-57
2022/01/27 15:24:58;;;;;;;8.97;8.27;;;6.30;32.70;;;;;;6283034;28;20923;-57
2022/01/27 15:28:01;;;;;;;8.10;7.70;;;6.30;31.90;;;;;;6277050;28;20241;-56
2022/01/27 15:31:04;;;;;;;9.10;8.40;;;6.40;32.00;;;;;;6271120;28;20754;-56
2022/01/27 15:34:07;;;;;;;9.07;8.37;;;6.40;31.70;;;;;;6280389;28;20684;-56
2022/01/27 15:37:11;;;;;;;9.00;8.50;;;6.40;31.70;;;;;;6272134;28;20234;-56
2022/01/27 15:40:16;;;;;;;8.60;7.97;;;6.40;31.70;;;;;;6283177;28;20237;-56
2022/01/27 15:43:39;;;;;;;9.03;8.43;;;6.50;31.80;;;;;;6280242;28;20233;-56
2022/01/27 15:46:42;;;;;;;9.30;8.50;;;6.40;31.20;;;;;;6281131;28;20245;-56
2022/01/27 15:49:45;;;;;;;9.17;8.47;;;6.40;31.60;;;;;;6279241;28;20229;-56
2022/01/27 15:52:49;;;;;;;9.33;8.77;;;6.70;31.90;;;;;;6283419;28;20236;-56
2022/01/27 15:55:52;;;;;;;9.30;8.60;;;6.70;32.00;;;;;;6282012;28;20330;-55
2022/01/27 15:58:55;;;;;;;8.80;8.30;;;6.60;31.30;;;;;;6262337;28;20237;-56
2022/01/27 16:01:57;;;;;;;9.03;8.23;;;6.70;30.90;;;;;;6270638;28;20229;-56
2022/01/27 16:05:00;;;;;;;8.83;8.23;;;6.50;30.70;;;;;;6273594;28;20242;-58
2022/01/27 16:08:05;;;;;;;9.37;8.67;;;6.50;31.50;;;;;;6267560;28;20238;-57
2022/01/27 16:11:08;;;;;;;9.17;8.57;;;6.50;31.80;;;;;;6264706;28;20286;-57
2022/01/27 16:14:10;;;;;;;10.00;8.90;;;6.40;33.00;;;;;;6282310;28;20320;-56
2022/01/27 16:17:13;;;;;;;9.40;8.80;;;6.40;33.10;;;;;;6280292;28;20238;-57
2022/01/27 16:20:16;;;;;;;10.57;9.33;;;6.40;34.40;;;;;;6270831;28;20435;-57
2022/01/27 16:23:21;;;;;;;9.90;9.17;;;6.40;36.60;;;;;;6284946;28;20718;-58
2022/01/27 16:26:23;;;;;;;10.33;9.47;;;6.60;37.40;;;;;;6272893;28;20258;-57
2022/01/27 16:29:26;;;;;;;10.67;9.97;;;6.30;36.50;;;;;;6276955;28;20225;-57
2022/01/27 16:32:30;;;;;;;10.10;9.40;;;6.70;36.60;;;;;;6282920;28;20233;-57